This is the latest recevied weather packets stored in our database for station/object WR7DW-3. If no packets are shown the sender has not sent any weather packets the latest 10 day(s).
| Time | Temp. | Humidity | Pressure | Rain* | Wind** | Luminosity | Snow |
|---|---|---|---|---|---|---|---|
| 1777727687 | 2.78° C | 74% | 1010 hPa | 0 mm | - | - | - |
| 1777726787 | 2.78° C | 74% | 1009.9 hPa | 0 mm | - | - | - |
| 1777724987 | 2.78° C | 73% | 1009.8 hPa | 0 mm | - | - | - |
| 1777724087 | 2.78° C | 74% | 1009.8 hPa | 0 mm | - | - | - |
| 1777723187 | 2.78° C | 73% | 1009.7 hPa | 0 mm | - | - | - |
| 1777721387 | 2.78° C | 72% | 1009.8 hPa | 0 mm | - | - | - |
| 1777720487 | 2.78° C | 71% | 1010 hPa | 0 mm | - | - | - |
| 1777719588 | 2.78° C | 69% | 1010 hPa | 0 mm | - | - | - |
| 1777718688 | 3.33° C | 68% | 1010.1 hPa | 0 mm | - | - | - |
| 1777717788 | 3.33° C | 67% | 1009.9 hPa | 0 mm | - | - | - |
| 1777716888 | 3.89° C | 65% | 1009.8 hPa | 0 mm | - | - | - |
| 1777715988 | 3.89° C | 64% | 1009.7 hPa | 0 mm | - | - | - |
| 1777714188 | 4.44° C | 61% | 1009.6 hPa | 0 mm | - | - | - |
| 1777713288 | 5° C | 57% | 1009.5 hPa | 0 mm | - | - | - |
| 1777711488 | 7.22° C | 51% | 1009.7 hPa | 0 mm | - | - | - |
| 1777710588 | 7.22° C | 51% | 1009.7 hPa | 0 mm | - | - | - |
| 1777709688 | 7.22° C | 51% | 1009.7 hPa | 0 mm | - | - | - |
| 1777708788 | 7.22° C | 51% | 1009.8 hPa | 0 mm | - | - | - |
| 1777706988 | 7.22° C | 50% | 1010.1 hPa | 0 mm | - | - | - |
| 1777705188 | 7.22° C | 51% | 1010 hPa | 0 mm | - | - | - |
| 1777703388 | 7.78° C | 47% | 1009.9 hPa | 0 mm | - | - | - |
| 1777702488 | 7.22° C | 48% | 1010.1 hPa | 0 mm | - | - | - |
| 1777701588 | 7.22° C | 51% | 1010.2 hPa | 0 mm | - | - | - |
| 1777700688 | 7.22° C | 48% | 1010.2 hPa | 0 mm | - | - | - |
| 1777699788 | 7.78° C | 47% | 1010.1 hPa | 0 mm | - | - | - |
* Rain latest hour (hover to see other rain measurements)
** Current wind speed in m/s (hover to see current wind gust speed)